Terminal Aerodrome Forecast
Issued by NWS

Home | Current Version | Previous Version | Text Only | Print | Product List | Glossary On
Versions: 1 2 3 4 5 6 7 8 9 10 11 12 13
000
FTUS43 KEAX 230530
TAFSTJ
TAF
KSTJ 230530Z 2306/2406 VRB03KT 2SM BR SCT015 OVC025
     FM230800 VRB03KT 1SM BR OVC008
     FM231600 VRB05KT 5SM BR BKN011
     FM231800 VRB05KT P6SM BKN040
     FM240300 05006KT P6SM BKN100=

USA.gov is the U.S. government's official web portal to all federal, state and local government web resources and services.